sensor_id;sensor_type;location;lat;lon;timestamp;P1;durP1;ratioP1;P2;durP2;ratioP2
82646;SDS011;72325;41.910;22.404;2023-11-19T00:04:32;3.05;;;2.22;;
82646;SDS011;72325;41.910;22.404;2023-11-19T00:06:58;1.70;;;1.33;;
82646;SDS011;72325;41.910;22.404;2023-11-19T00:09:28;2.17;;;1.38;;
82646;SDS011;72325;41.910;22.404;2023-11-19T00:11:54;2.03;;;1.38;;
82646;SDS011;72325;41.910;22.404;2023-11-19T00:14:21;2.40;;;1.77;;
82646;SDS011;72325;41.910;22.404;2023-11-19T00:16:47;2.90;;;1.63;;
82646;SDS011;72325;41.910;22.404;2023-11-19T00:19:15;2.63;;;1.50;;
82646;SDS011;72325;41.910;22.404;2023-11-19T00:21:41;2.08;;;1.40;;
82646;SDS011;72325;41.910;22.404;2023-11-19T00:24:08;2.00;;;1.25;;
82646;SDS011;72325;41.910;22.404;2023-11-19T00:26:34;2.53;;;1.60;;
82646;SDS011;72325;41.910;22.404;2023-11-19T00:29:00;1.85;;;1.48;;
82646;SDS011;72325;41.910;22.404;2023-11-19T00:34:30;3.08;;;1.80;;
82646;SDS011;72325;41.910;22.404;2023-11-19T00:36:56;2.50;;;1.40;;
82646;SDS011;72325;41.910;22.404;2023-11-19T00:39:22;3.13;;;2.10;;
82646;SDS011;72325;41.910;22.404;2023-11-19T00:41:48;5.10;;;2.30;;
82646;SDS011;72325;41.910;22.404;2023-11-19T00:44:14;2.38;;;1.70;;
82646;SDS011;72325;41.910;22.404;2023-11-19T00:49:43;3.95;;;1.80;;
82646;SDS011;72325;41.910;22.404;2023-11-19T00:52:09;3.67;;;2.13;;
82646;SDS011;72325;41.910;22.404;2023-11-19T00:54:36;4.93;;;2.90;;
82646;SDS011;72325;41.910;22.404;2023-11-19T00:57:02;3.47;;;2.00;;
82646;SDS011;72325;41.910;22.404;2023-11-19T00:59:28;2.97;;;2.20;;
82646;SDS011;72325;41.910;22.404;2023-11-19T01:01:54;3.72;;;1.85;;
82646;SDS011;72325;41.910;22.404;2023-11-19T01:04:21;2.50;;;2.10;;
82646;SDS011;72325;41.910;22.404;2023-11-19T01:06:49;3.00;;;2.20;;
82646;SDS011;72325;41.910;22.404;2023-11-19T01:09:15;2.83;;;1.80;;
82646;SDS011;72325;41.910;22.404;2023-11-19T01:11:42;3.25;;;1.92;;
82646;SDS011;72325;41.910;22.404;2023-11-19T01:14:08;3.00;;;2.15;;
82646;SDS011;72325;41.910;22.404;2023-11-19T01:19:37;2.13;;;1.42;;
82646;SDS011;72325;41.910;22.404;2023-11-19T01:22:03;3.08;;;2.08;;
82646;SDS011;72325;41.910;22.404;2023-11-19T01:24:30;3.20;;;1.80;;
82646;SDS011;72325;41.910;22.404;2023-11-19T01:26:56;4.75;;;2.75;;
82646;SDS011;72325;41.910;22.404;2023-11-19T01:29:22;2.72;;;1.80;;
82646;SDS011;72325;41.910;22.404;2023-11-19T01:31:48;3.83;;;1.73;;
82646;SDS011;72325;41.910;22.404;2023-11-19T01:34:16;3.25;;;2.03;;
82646;SDS011;72325;41.910;22.404;2023-11-19T01:36:42;3.03;;;2.00;;
82646;SDS011;72325;41.910;22.404;2023-11-19T01:39:08;3.92;;;2.42;;
82646;SDS011;72325;41.910;22.404;2023-11-19T01:41:34;4.28;;;2.40;;
82646;SDS011;72325;41.910;22.404;2023-11-19T01:44:01;3.65;;;2.10;;
82646;SDS011;72325;41.910;22.404;2023-11-19T01:49:59;2.92;;;2.13;;
82646;SDS011;72325;41.910;22.404;2023-11-19T01:52:26;2.97;;;2.33;;
82646;SDS011;72325;41.910;22.404;2023-11-19T01:54:53;2.30;;;1.60;;
82646;SDS011;72325;41.910;22.404;2023-11-19T01:57:21;2.85;;;2.20;;
82646;SDS011;72325;41.910;22.404;2023-11-19T01:59:49;2.92;;;1.98;;
82646;SDS011;72325;41.910;22.404;2023-11-19T02:02:16;3.05;;;2.40;;
82646;SDS011;72325;41.910;22.404;2023-11-19T02:04:46;2.03;;;1.58;;
82646;SDS011;72325;41.910;22.404;2023-11-19T02:07:12;3.25;;;1.95;;
82646;SDS011;72325;41.910;22.404;2023-11-19T02:09:42;2.70;;;2.17;;
82646;SDS011;72325;41.910;22.404;2023-11-19T02:12:08;3.17;;;2.00;;
82646;SDS011;72325;41.910;22.404;2023-11-19T02:14:36;3.38;;;1.90;;
82646;SDS011;72325;41.910;22.404;2023-11-19T02:17:02;3.95;;;2.70;;
82646;SDS011;72325;41.910;22.404;2023-11-19T02:19:29;5.72;;;3.88;;
82646;SDS011;72325;41.910;22.404;2023-11-19T02:21:55;5.00;;;2.97;;
82646;SDS011;72325;41.910;22.404;2023-11-19T02:24:21;3.08;;;2.40;;
82646;SDS011;72325;41.910;22.404;2023-11-19T02:29:17;3.80;;;2.70;;
82646;SDS011;72325;41.910;22.404;2023-11-19T02:34:47;6.95;;;4.65;;
82646;SDS011;72325;41.910;22.404;2023-11-19T02:37:13;8.60;;;4.20;;
82646;SDS011;72325;41.910;22.404;2023-11-19T02:39:40;3.67;;;2.40;;
82646;SDS011;72325;41.910;22.404;2023-11-19T02:42:07;3.80;;;2.85;;
82646;SDS011;72325;41.910;22.404;2023-11-19T02:44:33;5.78;;;3.10;;
82646;SDS011;72325;41.910;22.404;2023-11-19T02:46:59;4.53;;;3.10;;
82646;SDS011;72325;41.910;22.404;2023-11-19T02:49:27;10.13;;;5.90;;
82646;SDS011;72325;41.910;22.404;2023-11-19T02:51:53;11.00;;;5.00;;
82646;SDS011;72325;41.910;22.404;2023-11-19T02:54:19;9.60;;;5.40;;
82646;SDS011;72325;41.910;22.404;2023-11-19T02:56:46;8.35;;;4.68;;
82646;SDS011;72325;41.910;22.404;2023-11-19T02:59:20;9.55;;;4.70;;
82646;SDS011;72325;41.910;22.404;2023-11-19T03:04:55;9.57;;;4.68;;
82646;SDS011;72325;41.910;22.404;2023-11-19T03:07:22;4.97;;;3.47;;
82646;SDS011;72325;41.910;22.404;2023-11-19T03:09:48;4.22;;;2.58;;
82646;SDS011;72325;41.910;22.404;2023-11-19T03:12:14;4.50;;;2.50;;
82646;SDS011;72325;41.910;22.404;2023-11-19T03:14:40;3.50;;;2.10;;
82646;SDS011;72325;41.910;22.404;2023-11-19T03:17:07;3.20;;;1.90;;
82646;SDS011;72325;41.910;22.404;2023-11-19T03:19:34;10.75;;;4.38;;
82646;SDS011;72325;41.910;22.404;2023-11-19T03:22:01;2.53;;;2.08;;
82646;SDS011;72325;41.910;22.404;2023-11-19T03:24:27;7.35;;;3.33;;
82646;SDS011;72325;41.910;22.404;2023-11-19T03:26:53;4.85;;;3.13;;
82646;SDS011;72325;41.910;22.404;2023-11-19T03:29:19;4.43;;;2.83;;
82646;SDS011;72325;41.910;22.404;2023-11-19T03:34:49;8.38;;;4.82;;
82646;SDS011;72325;41.910;22.404;2023-11-19T03:37:15;4.25;;;2.95;;
82646;SDS011;72325;41.910;22.404;2023-11-19T03:39:42;4.57;;;3.15;;
82646;SDS011;72325;41.910;22.404;2023-11-19T03:42:08;4.15;;;2.60;;
82646;SDS011;72325;41.910;22.404;2023-11-19T03:44:34;5.65;;;2.88;;
82646;SDS011;72325;41.910;22.404;2023-11-19T03:50:04;4.30;;;2.72;;
82646;SDS011;72325;41.910;22.404;2023-11-19T03:52:30;5.80;;;3.78;;
82646;SDS011;72325;41.910;22.404;2023-11-19T03:54:56;4.72;;;4.22;;
82646;SDS011;72325;41.910;22.404;2023-11-19T03:57:22;6.22;;;4.00;;
82646;SDS011;72325;41.910;22.404;2023-11-19T03:59:48;6.53;;;3.97;;
82646;SDS011;72325;41.910;22.404;2023-11-19T04:02:15;8.38;;;5.82;;
82646;SDS011;72325;41.910;22.404;2023-11-19T04:04:41;9.63;;;5.60;;
82646;SDS011;72325;41.910;22.404;2023-11-19T04:07:07;4.00;;;3.03;;
82646;SDS011;72325;41.910;22.404;2023-11-19T04:09:34;5.55;;;4.40;;
82646;SDS011;72325;41.910;22.404;2023-11-19T04:12:02;4.80;;;3.30;;
82646;SDS011;72325;41.910;22.404;2023-11-19T04:14:29;5.47;;;4.13;;
82646;SDS011;72325;41.910;22.404;2023-11-19T04:19:58;5.63;;;4.22;;
82646;SDS011;72325;41.910;22.404;2023-11-19T04:22:24;6.15;;;4.63;;
82646;SDS011;72325;41.910;22.404;2023-11-19T04:24:51;6.28;;;4.65;;
82646;SDS011;72325;41.910;22.404;2023-11-19T04:27:17;8.43;;;5.60;;
82646;SDS011;72325;41.910;22.404;2023-11-19T04:29:43;7.72;;;5.55;;
82646;SDS011;72325;41.910;22.404;2023-11-19T04:35:14;5.13;;;3.75;;
82646;SDS011;72325;41.910;22.404;2023-11-19T04:37:41;7.43;;;3.90;;
82646;SDS011;72325;41.910;22.404;2023-11-19T04:40:07;7.90;;;5.72;;
82646;SDS011;72325;41.910;22.404;2023-11-19T04:42:34;10.63;;;6.93;;
82646;SDS011;72325;41.910;22.404;2023-11-19T04:45:00;7.70;;;6.30;;
82646;SDS011;72325;41.910;22.404;2023-11-19T04:47:27;7.75;;;4.88;;
82646;SDS011;72325;41.910;22.404;2023-11-19T04:49:53;6.65;;;4.80;;
82646;SDS011;72325;41.910;22.404;2023-11-19T04:52:19;7.60;;;4.22;;
82646;SDS011;72325;41.910;22.404;2023-11-19T04:54:45;6.65;;;4.10;;
82646;SDS011;72325;41.910;22.404;2023-11-19T04:57:13;4.65;;;3.15;;
82646;SDS011;72325;41.910;22.404;2023-11-19T04:59:39;4.50;;;3.00;;
82646;SDS011;72325;41.910;22.404;2023-11-19T05:05:09;6.57;;;4.50;;
82646;SDS011;72325;41.910;22.404;2023-11-19T05:07:36;8.20;;;6.10;;
82646;SDS011;72325;41.910;22.404;2023-11-19T05:10:03;9.50;;;6.70;;
82646;SDS011;72325;41.910;22.404;2023-11-19T05:12:31;9.23;;;5.55;;
82646;SDS011;72325;41.910;22.404;2023-11-19T05:14:57;11.68;;;7.18;;
82646;SDS011;72325;41.910;22.404;2023-11-19T05:17:23;9.32;;;7.25;;
82646;SDS011;72325;41.910;22.404;2023-11-19T05:19:49;7.25;;;5.18;;
82646;SDS011;72325;41.910;22.404;2023-11-19T05:22:15;7.55;;;5.05;;
82646;SDS011;72325;41.910;22.404;2023-11-19T05:24:41;7.93;;;4.22;;
82646;SDS011;72325;41.910;22.404;2023-11-19T05:27:07;5.85;;;3.65;;
82646;SDS011;72325;41.910;22.404;2023-11-19T05:29:33;7.45;;;4.97;;
82646;SDS011;72325;41.910;22.404;2023-11-19T05:35:03;9.70;;;6.35;;
82646;SDS011;72325;41.910;22.404;2023-11-19T05:37:29;9.50;;;5.57;;
82646;SDS011;72325;41.910;22.404;2023-11-19T05:39:55;6.10;;;3.80;;
82646;SDS011;72325;41.910;22.404;2023-11-19T05:42:21;3.42;;;2.40;;
82646;SDS011;72325;41.910;22.404;2023-11-19T05:44:48;4.05;;;2.78;;
82646;SDS011;72325;41.910;22.404;2023-11-19T05:50:18;3.42;;;1.92;;
82646;SDS011;72325;41.910;22.404;2023-11-19T05:52:44;4.97;;;2.47;;
82646;SDS011;72325;41.910;22.404;2023-11-19T05:55:10;6.95;;;3.88;;
82646;SDS011;72325;41.910;22.404;2023-11-19T05:57:37;5.97;;;4.13;;
82646;SDS011;72325;41.910;22.404;2023-11-19T06:00:03;5.45;;;3.60;;
82646;SDS011;72325;41.910;22.404;2023-11-19T06:02:33;6.60;;;4.90;;
82646;SDS011;72325;41.910;22.404;2023-11-19T06:05:00;5.95;;;4.53;;
82646;SDS011;72325;41.910;22.404;2023-11-19T06:07:27;7.03;;;4.68;;
82646;SDS011;72325;41.910;22.404;2023-11-19T06:09:53;6.53;;;4.35;;
82646;SDS011;72325;41.910;22.404;2023-11-19T06:12:19;9.63;;;6.53;;
82646;SDS011;72325;41.910;22.404;2023-11-19T06:14:45;7.88;;;5.97;;
82646;SDS011;72325;41.910;22.404;2023-11-19T06:20:15;5.60;;;3.65;;
82646;SDS011;72325;41.910;22.404;2023-11-19T06:22:42;13.00;;;6.00;;
82646;SDS011;72325;41.910;22.404;2023-11-19T06:25:10;8.13;;;4.18;;
82646;SDS011;72325;41.910;22.404;2023-11-19T06:27:37;7.57;;;5.28;;
82646;SDS011;72325;41.910;22.404;2023-11-19T06:36:13;6.25;;;3.67;;
82646;SDS011;72325;41.910;22.404;2023-11-19T06:38:41;2.75;;;2.22;;
82646;SDS011;72325;41.910;22.404;2023-11-19T06:41:07;3.63;;;2.70;;
82646;SDS011;72325;41.910;22.404;2023-11-19T06:43:37;3.47;;;2.63;;
82646;SDS011;72325;41.910;22.404;2023-11-19T06:46:03;3.88;;;3.25;;
82646;SDS011;72325;41.910;22.404;2023-11-19T06:48:33;3.20;;;2.78;;
82646;SDS011;72325;41.910;22.404;2023-11-19T06:51:00;3.28;;;2.42;;
82646;SDS011;72325;41.910;22.404;2023-11-19T06:53:26;4.68;;;3.75;;
82646;SDS011;72325;41.910;22.404;2023-11-19T06:55:53;11.68;;;8.85;;
82646;SDS011;72325;41.910;22.404;2023-11-19T06:58:19;13.95;;;10.48;;
82646;SDS011;72325;41.910;22.404;2023-11-19T07:00:45;10.20;;;7.43;;
82646;SDS011;72325;41.910;22.404;2023-11-19T07:03:12;16.67;;;10.70;;
82646;SDS011;72325;41.910;22.404;2023-11-19T07:05:38;10.88;;;7.70;;
82646;SDS011;72325;41.910;22.404;2023-11-19T07:08:05;10.52;;;8.00;;
82646;SDS011;72325;41.910;22.404;2023-11-19T07:10:35;11.50;;;9.00;;
82646;SDS011;72325;41.910;22.404;2023-11-19T07:13:01;12.23;;;9.20;;
82646;SDS011;72325;41.910;22.404;2023-11-19T07:15:27;21.15;;;15.65;;
82646;SDS011;72325;41.910;22.404;2023-11-19T07:17:53;23.45;;;16.55;;
82646;SDS011;72325;41.910;22.404;2023-11-19T07:20:19;27.20;;;18.20;;
82646;SDS011;72325;41.910;22.404;2023-11-19T07:22:46;14.43;;;10.55;;
82646;SDS011;72325;41.910;22.404;2023-11-19T07:25:15;14.05;;;9.93;;
82646;SDS011;72325;41.910;22.404;2023-11-19T07:30:07;11.43;;;7.35;;
82646;SDS011;72325;41.910;22.404;2023-11-19T07:35:37;8.80;;;6.88;;
82646;SDS011;72325;41.910;22.404;2023-11-19T07:38:03;9.15;;;7.22;;
82646;SDS011;72325;41.910;22.404;2023-11-19T07:40:30;6.85;;;5.60;;
82646;SDS011;72325;41.910;22.404;2023-11-19T07:42:56;8.93;;;5.85;;
82646;SDS011;72325;41.910;22.404;2023-11-19T07:45:22;11.57;;;6.88;;
82646;SDS011;72325;41.910;22.404;2023-11-19T07:47:48;7.70;;;5.95;;
82646;SDS011;72325;41.910;22.404;2023-11-19T07:50:16;8.13;;;5.75;;
82646;SDS011;72325;41.910;22.404;2023-11-19T07:52:45;7.20;;;5.03;;
82646;SDS011;72325;41.910;22.404;2023-11-19T07:55:11;6.80;;;4.00;;
82646;SDS011;72325;41.910;22.404;2023-11-19T07:57:37;5.05;;;3.92;;
82646;SDS011;72325;41.910;22.404;2023-11-19T08:00:03;6.28;;;5.03;;
82646;SDS011;72325;41.910;22.404;2023-11-19T08:05:33;5.95;;;4.57;;
82646;SDS011;72325;41.910;22.404;2023-11-19T08:07:59;8.45;;;4.78;;
82646;SDS011;72325;41.910;22.404;2023-11-19T08:10:25;5.80;;;4.40;;
82646;SDS011;72325;41.910;22.404;2023-11-19T08:12:51;12.25;;;4.22;;
82646;SDS011;72325;41.910;22.404;2023-11-19T08:15:17;5.57;;;3.88;;
82646;SDS011;72325;41.910;22.404;2023-11-19T08:20:47;4.88;;;3.92;;
82646;SDS011;72325;41.910;22.404;2023-11-19T08:23:17;5.07;;;3.25;;
82646;SDS011;72325;41.910;22.404;2023-11-19T08:25:43;4.20;;;2.67;;
82646;SDS011;72325;41.910;22.404;2023-11-19T08:28:10;3.70;;;2.80;;
82646;SDS011;72325;41.910;22.404;2023-11-19T08:30:36;3.85;;;2.97;;
82646;SDS011;72325;41.910;22.404;2023-11-19T08:33:02;3.30;;;2.65;;
82646;SDS011;72325;41.910;22.404;2023-11-19T08:35:28;3.63;;;2.65;;
82646;SDS011;72325;41.910;22.404;2023-11-19T08:37:55;3.55;;;2.97;;
82646;SDS011;72325;41.910;22.404;2023-11-19T08:40:22;4.35;;;2.65;;
82646;SDS011;72325;41.910;22.404;2023-11-19T08:42:48;4.13;;;3.28;;
82646;SDS011;72325;41.910;22.404;2023-11-19T08:45:14;11.85;;;7.13;;
82646;SDS011;72325;41.910;22.404;2023-11-19T08:50:43;4.78;;;3.25;;
82646;SDS011;72325;41.910;22.404;2023-11-19T08:53:09;5.07;;;3.30;;
82646;SDS011;72325;41.910;22.404;2023-11-19T08:55:36;8.95;;;5.18;;
82646;SDS011;72325;41.910;22.404;2023-11-19T08:58:02;5.38;;;3.10;;
82646;SDS011;72325;41.910;22.404;2023-11-19T09:00:28;3.80;;;2.92;;
82646;SDS011;72325;41.910;22.404;2023-11-19T09:02:55;5.70;;;4.05;;
82646;SDS011;72325;41.910;22.404;2023-11-19T09:05:21;3.60;;;2.97;;
82646;SDS011;72325;41.910;22.404;2023-11-19T09:07:47;3.78;;;3.00;;
82646;SDS011;72325;41.910;22.404;2023-11-19T09:10:14;8.38;;;5.28;;
82646;SDS011;72325;41.910;22.404;2023-11-19T09:12:41;5.40;;;3.45;;
82646;SDS011;72325;41.910;22.404;2023-11-19T09:15:07;4.20;;;3.53;;
82646;SDS011;72325;41.910;22.404;2023-11-19T09:20:38;3.40;;;2.67;;
82646;SDS011;72325;41.910;22.404;2023-11-19T09:23:05;5.03;;;3.65;;
82646;SDS011;72325;41.910;22.404;2023-11-19T09:25:31;13.80;;;7.40;;
82646;SDS011;72325;41.910;22.404;2023-11-19T09:27:57;6.03;;;4.50;;
82646;SDS011;72325;41.910;22.404;2023-11-19T09:30:23;6.90;;;4.50;;
82646;SDS011;72325;41.910;22.404;2023-11-19T09:35:53;4.28;;;3.17;;
82646;SDS011;72325;41.910;22.404;2023-11-19T09:38:19;3.10;;;2.38;;
82646;SDS011;72325;41.910;22.404;2023-11-19T09:40:45;3.08;;;2.78;;
82646;SDS011;72325;41.910;22.404;2023-11-19T09:43:11;4.50;;;3.42;;
82646;SDS011;72325;41.910;22.404;2023-11-19T09:45:45;4.88;;;3.50;;
82646;SDS011;72325;41.910;22.404;2023-11-19T09:48:14;4.22;;;2.72;;
82646;SDS011;72325;41.910;22.404;2023-11-19T09:53:09;4.38;;;3.10;;
82646;SDS011;72325;41.910;22.404;2023-11-19T09:55:35;5.05;;;3.65;;
82646;SDS011;72325;41.910;22.404;2023-11-19T09:58:01;5.00;;;4.28;;
82646;SDS011;72325;41.910;22.404;2023-11-19T10:00:28;5.85;;;5.25;;
82646;SDS011;72325;41.910;22.404;2023-11-19T10:05:57;8.45;;;4.82;;
82646;SDS011;72325;41.910;22.404;2023-11-19T10:08:24;5.07;;;3.60;;
82646;SDS011;72325;41.910;22.404;2023-11-19T10:10:50;3.92;;;3.40;;
82646;SDS011;72325;41.910;22.404;2023-11-19T10:13:17;6.82;;;4.57;;
82646;SDS011;72325;41.910;22.404;2023-11-19T10:15:43;3.67;;;3.13;;
82646;SDS011;72325;41.910;22.404;2023-11-19T10:18:09;8.48;;;5.05;;
82646;SDS011;72325;41.910;22.404;2023-11-19T10:20:41;4.35;;;2.90;;
82646;SDS011;72325;41.910;22.404;2023-11-19T10:23:09;6.18;;;4.25;;
82646;SDS011;72325;41.910;22.404;2023-11-19T10:25:36;4.32;;;3.45;;
82646;SDS011;72325;41.910;22.404;2023-11-19T10:28:02;6.18;;;4.85;;
82646;SDS011;72325;41.910;22.404;2023-11-19T10:30:29;4.78;;;3.30;;
82646;SDS011;72325;41.910;22.404;2023-11-19T10:35:59;8.82;;;6.90;;
82646;SDS011;72325;41.910;22.404;2023-11-19T10:38:25;8.48;;;5.45;;
82646;SDS011;72325;41.910;22.404;2023-11-19T10:40:51;5.53;;;3.50;;
82646;SDS011;72325;41.910;22.404;2023-11-19T10:43:21;5.13;;;4.32;;
82646;SDS011;72325;41.910;22.404;2023-11-19T10:45:48;3.75;;;2.88;;
82646;SDS011;72325;41.910;22.404;2023-11-19T10:48:14;5.10;;;2.88;;
82646;SDS011;72325;41.910;22.404;2023-11-19T10:50:41;3.55;;;2.90;;
82646;SDS011;72325;41.910;22.404;2023-11-19T10:53:08;3.72;;;2.92;;
82646;SDS011;72325;41.910;22.404;2023-11-19T10:55:35;5.00;;;3.40;;
82646;SDS011;72325;41.910;22.404;2023-11-19T10:58:04;4.40;;;3.78;;
82646;SDS011;72325;41.910;22.404;2023-11-19T11:00:32;3.58;;;2.60;;
82646;SDS011;72325;41.910;22.404;2023-11-19T11:06:03;5.10;;;3.50;;
82646;SDS011;72325;41.910;22.404;2023-11-19T11:08:30;5.40;;;3.70;;
82646;SDS011;72325;41.910;22.404;2023-11-19T11:10:56;4.25;;;3.10;;
82646;SDS011;72325;41.910;22.404;2023-11-19T11:13:23;8.27;;;4.95;;
82646;SDS011;72325;41.910;22.404;2023-11-19T11:15:49;5.57;;;3.80;;
82646;SDS011;72325;41.910;22.404;2023-11-19T11:18:16;4.05;;;3.15;;
82646;SDS011;72325;41.910;22.404;2023-11-19T11:20:46;3.95;;;3.20;;
82646;SDS011;72325;41.910;22.404;2023-11-19T11:23:26;4.43;;;2.83;;
82646;SDS011;72325;41.910;22.404;2023-11-19T11:29:01;4.38;;;3.25;;
82646;SDS011;72325;41.910;22.404;2023-11-19T11:36:25;2.83;;;2.42;;
82646;SDS011;72325;41.910;22.404;2023-11-19T11:38:51;3.70;;;2.92;;
82646;SDS011;72325;41.910;22.404;2023-11-19T11:41:21;2.70;;;2.28;;
82646;SDS011;72325;41.910;22.404;2023-11-19T11:43:51;2.75;;;2.38;;
82646;SDS011;72325;41.910;22.404;2023-11-19T11:56:38;3.17;;;2.33;;
82646;SDS011;72325;41.910;22.404;2023-11-19T11:59:07;3.63;;;2.80;;
82646;SDS011;72325;41.910;22.404;2023-11-19T12:01:34;4.15;;;3.25;;
82646;SDS011;72325;41.910;22.404;2023-11-19T12:04:00;4.57;;;3.97;;
82646;SDS011;72325;41.910;22.404;2023-11-19T12:06:27;5.32;;;4.05;;
82646;SDS011;72325;41.910;22.404;2023-11-19T12:08:59;5.20;;;3.92;;
82646;SDS011;72325;41.910;22.404;2023-11-19T12:11:25;4.65;;;3.72;;
82646;SDS011;72325;41.910;22.404;2023-11-19T12:13:54;4.93;;;4.25;;
82646;SDS011;72325;41.910;22.404;2023-11-19T12:16:27;2.40;;;1.70;;
82646;SDS011;72325;41.910;22.404;2023-11-19T12:18:54;3.70;;;3.00;;
82646;SDS011;72325;41.910;22.404;2023-11-19T12:21:27;3.40;;;2.55;;
82646;SDS011;72325;41.910;22.404;2023-11-19T12:23:57;3.08;;;2.47;;
82646;SDS011;72325;41.910;22.404;2023-11-19T12:26:32;4.38;;;3.58;;
82646;SDS011;72325;41.910;22.404;2023-11-19T12:28:59;10.68;;;5.30;;
82646;SDS011;72325;41.910;22.404;2023-11-19T12:31:25;13.55;;;7.55;;
82646;SDS011;72325;41.910;22.404;2023-11-19T12:33:51;4.30;;;3.28;;
82646;SDS011;72325;41.910;22.404;2023-11-19T12:36:18;6.78;;;5.10;;
82646;SDS011;72325;41.910;22.404;2023-11-19T12:38:44;6.00;;;4.05;;
82646;SDS011;72325;41.910;22.404;2023-11-19T12:41:11;6.70;;;4.00;;
82646;SDS011;72325;41.910;22.404;2023-11-19T12:43:38;3.33;;;2.20;;
82646;SDS011;72325;41.910;22.404;2023-11-19T12:46:23;4.13;;;3.10;;
82646;SDS011;72325;41.910;22.404;2023-11-19T12:48:49;5.05;;;3.72;;
82646;SDS011;72325;41.910;22.404;2023-11-19T12:51:15;3.78;;;2.83;;
82646;SDS011;72325;41.910;22.404;2023-11-19T12:53:48;2.97;;;2.05;;
82646;SDS011;72325;41.910;22.404;2023-11-19T12:56:15;4.57;;;3.45;;
82646;SDS011;72325;41.910;22.404;2023-11-19T12:58:41;6.93;;;4.38;;
82646;SDS011;72325;41.910;22.404;2023-11-19T13:01:08;5.95;;;4.13;;
82646;SDS011;72325;41.910;22.404;2023-11-19T13:03:37;7.53;;;5.32;;
82646;SDS011;72325;41.910;22.404;2023-11-19T13:06:06;8.65;;;5.00;;
82646;SDS011;72325;41.910;22.404;2023-11-19T13:08:39;9.38;;;5.47;;
82646;SDS011;72325;41.910;22.404;2023-11-19T13:11:06;3.90;;;2.92;;
82646;SDS011;72325;41.910;22.404;2023-11-19T13:13:33;3.97;;;2.42;;
82646;SDS011;72325;41.910;22.404;2023-11-19T13:22:08;8.27;;;5.20;;
82646;SDS011;72325;41.910;22.404;2023-11-19T13:24:34;7.68;;;4.10;;
82646;SDS011;72325;41.910;22.404;2023-11-19T13:27:00;6.95;;;3.53;;
82646;SDS011;72325;41.910;22.404;2023-11-19T13:29:26;6.97;;;4.40;;
82646;SDS011;72325;41.910;22.404;2023-11-19T13:31:52;8.63;;;4.80;;
82646;SDS011;72325;41.910;22.404;2023-11-19T13:34:18;8.57;;;4.47;;
82646;SDS011;72325;41.910;22.404;2023-11-19T13:36:44;11.15;;;5.70;;
82646;SDS011;72325;41.910;22.404;2023-11-19T13:39:11;15.25;;;9.07;;
82646;SDS011;72325;41.910;22.404;2023-11-19T13:41:37;8.50;;;4.00;;
82646;SDS011;72325;41.910;22.404;2023-11-19T13:44:03;5.68;;;3.85;;
82646;SDS011;72325;41.910;22.404;2023-11-19T13:46:29;7.28;;;3.90;;
82646;SDS011;72325;41.910;22.404;2023-11-19T13:48:55;11.32;;;5.88;;
82646;SDS011;72325;41.910;22.404;2023-11-19T13:51:21;6.10;;;3.08;;
82646;SDS011;72325;41.910;22.404;2023-11-19T13:53:47;8.30;;;4.78;;
82646;SDS011;72325;41.910;22.404;2023-11-19T13:56:13;7.10;;;3.50;;
82646;SDS011;72325;41.910;22.404;2023-11-19T13:58:39;8.75;;;4.40;;
82646;SDS011;72325;41.910;22.404;2023-11-19T14:01:05;10.52;;;4.88;;
82646;SDS011;72325;41.910;22.404;2023-11-19T14:06:35;10.40;;;5.13;;
82646;SDS011;72325;41.910;22.404;2023-11-19T14:09:01;11.02;;;6.72;;
82646;SDS011;72325;41.910;22.404;2023-11-19T14:11:28;7.75;;;4.68;;
82646;SDS011;72325;41.910;22.404;2023-11-19T14:13:54;9.82;;;5.35;;
82646;SDS011;72325;41.910;22.404;2023-11-19T14:16:20;5.47;;;3.22;;
82646;SDS011;72325;41.910;22.404;2023-11-19T14:18:46;9.77;;;6.32;;
82646;SDS011;72325;41.910;22.404;2023-11-19T14:21:14;8.05;;;4.60;;
82646;SDS011;72325;41.910;22.404;2023-11-19T14:23:40;9.10;;;4.97;;
82646;SDS011;72325;41.910;22.404;2023-11-19T14:26:06;11.82;;;5.97;;
82646;SDS011;72325;41.910;22.404;2023-11-19T14:28:32;7.38;;;4.75;;
82646;SDS011;72325;41.910;22.404;2023-11-19T14:30:58;5.88;;;3.88;;
82646;SDS011;72325;41.910;22.404;2023-11-19T14:36:28;16.45;;;10.15;;
82646;SDS011;72325;41.910;22.404;2023-11-19T14:38:54;17.73;;;10.60;;
82646;SDS011;72325;41.910;22.404;2023-11-19T14:41:20;11.55;;;6.95;;
82646;SDS011;72325;41.910;22.404;2023-11-19T14:43:47;12.65;;;7.55;;
82646;SDS011;72325;41.910;22.404;2023-11-19T14:46:13;18.25;;;11.18;;
82646;SDS011;72325;41.910;22.404;2023-11-19T14:51:42;12.73;;;8.50;;
82646;SDS011;72325;41.910;22.404;2023-11-19T14:54:08;16.08;;;9.65;;
82646;SDS011;72325;41.910;22.404;2023-11-19T14:56:34;11.32;;;9.27;;
82646;SDS011;72325;41.910;22.404;2023-11-19T14:59:00;19.30;;;9.82;;
82646;SDS011;72325;41.910;22.404;2023-11-19T15:01:26;10.93;;;8.25;;
82646;SDS011;72325;41.910;22.404;2023-11-19T15:03:53;16.60;;;11.88;;
82646;SDS011;72325;41.910;22.404;2023-11-19T15:06:24;18.50;;;12.38;;
82646;SDS011;72325;41.910;22.404;2023-11-19T15:08:52;31.20;;;18.83;;
82646;SDS011;72325;41.910;22.404;2023-11-19T15:11:18;20.15;;;13.95;;
82646;SDS011;72325;41.910;22.404;2023-11-19T15:13:44;23.13;;;14.35;;
82646;SDS011;72325;41.910;22.404;2023-11-19T15:16:10;12.07;;;9.20;;
82646;SDS011;72325;41.910;22.404;2023-11-19T15:21:40;26.08;;;15.63;;
82646;SDS011;72325;41.910;22.404;2023-11-19T15:24:07;18.98;;;10.90;;
82646;SDS011;72325;41.910;22.404;2023-11-19T15:26:34;12.55;;;8.90;;
82646;SDS011;72325;41.910;22.404;2023-11-19T15:29:00;10.23;;;7.78;;
82646;SDS011;72325;41.910;22.404;2023-11-19T15:31:26;7.75;;;5.53;;
82646;SDS011;72325;41.910;22.404;2023-11-19T15:33:53;9.68;;;5.22;;
82646;SDS011;72325;41.910;22.404;2023-11-19T15:36:19;17.85;;;10.52;;
82646;SDS011;72325;41.910;22.404;2023-11-19T15:38:45;37.17;;;25.50;;
82646;SDS011;72325;41.910;22.404;2023-11-19T15:41:12;24.35;;;15.00;;
82646;SDS011;72325;41.910;22.404;2023-11-19T15:43:38;14.85;;;10.27;;
82646;SDS011;72325;41.910;22.404;2023-11-19T15:46:07;37.63;;;28.88;;
82646;SDS011;72325;41.910;22.404;2023-11-19T15:51:37;29.67;;;20.13;;
82646;SDS011;72325;41.910;22.404;2023-11-19T15:54:03;34.97;;;24.83;;
82646;SDS011;72325;41.910;22.404;2023-11-19T15:56:30;36.58;;;25.58;;
82646;SDS011;72325;41.910;22.404;2023-11-19T15:58:56;50.40;;;30.08;;
82646;SDS011;72325;41.910;22.404;2023-11-19T16:01:22;40.38;;;22.98;;
82646;SDS011;72325;41.910;22.404;2023-11-19T16:06:52;32.28;;;21.10;;
82646;SDS011;72325;41.910;22.404;2023-11-19T16:09:18;25.17;;;18.55;;
82646;SDS011;72325;41.910;22.404;2023-11-19T16:11:47;24.65;;;16.75;;
82646;SDS011;72325;41.910;22.404;2023-11-19T16:14:13;26.27;;;16.40;;
82646;SDS011;72325;41.910;22.404;2023-11-19T16:16:40;24.48;;;18.20;;
82646;SDS011;72325;41.910;22.404;2023-11-19T16:19:06;30.83;;;21.98;;
82646;SDS011;72325;41.910;22.404;2023-11-19T16:21:33;37.33;;;22.50;;
82646;SDS011;72325;41.910;22.404;2023-11-19T16:24:02;33.78;;;21.60;;
82646;SDS011;72325;41.910;22.404;2023-11-19T16:26:29;40.65;;;25.67;;
82646;SDS011;72325;41.910;22.404;2023-11-19T16:28:56;21.65;;;15.57;;
82646;SDS011;72325;41.910;22.404;2023-11-19T16:31:22;28.58;;;19.90;;
82646;SDS011;72325;41.910;22.404;2023-11-19T16:36:51;27.92;;;18.35;;
82646;SDS011;72325;41.910;22.404;2023-11-19T16:39:17;30.83;;;21.70;;
82646;SDS011;72325;41.910;22.404;2023-11-19T16:41:43;30.38;;;19.55;;